createdAt,value
2022-10-28T00:01:19.497Z,19.15
2022-10-28T00:11:24.522Z,22.73
2022-10-28T00:21:29.990Z,19.52
2022-10-28T00:31:33.547Z,17.52
2022-10-28T00:41:38.087Z,17.60
2022-10-28T00:51:40.942Z,16.20
2022-10-28T01:01:43.189Z,18.75
2022-10-28T01:12:09.822Z,18.25
2022-10-28T01:22:20.549Z,14.05
2022-10-28T01:32:33.400Z,13.95
2022-10-28T01:42:38.486Z,13.80
2022-10-28T01:52:43.904Z,17.15
2022-10-28T02:02:48.660Z,16.38
2022-10-28T02:12:57.212Z,13.80
2022-10-28T02:33:15.259Z,13.70
2022-10-28T02:43:19.508Z,11.88
2022-10-28T02:53:28.959Z,11.27
2022-10-28T03:03:31.084Z,12.07
2022-10-28T03:13:33.587Z,10.57
2022-10-28T03:23:35.684Z,9.52
2022-10-28T03:33:37.760Z,10.35
2022-10-28T03:43:39.947Z,9.45
2022-10-28T03:53:42.015Z,9.23
2022-10-28T04:03:44.200Z,10.20
2022-10-28T04:13:46.305Z,9.88
2022-10-28T04:23:48.446Z,13.07
2022-10-28T04:33:50.499Z,16.02
2022-10-28T04:43:52.649Z,16.52
2022-10-28T04:53:54.749Z,25.25
2022-10-28T05:03:56.856Z,22.80
2022-10-28T05:13:59.038Z,17.83
2022-10-28T05:24:01.132Z,16.77
2022-10-28T05:34:03.282Z,13.68
2022-10-28T05:44:05.784Z,22.65
2022-10-28T05:54:08.010Z,15.88
2022-10-28T06:04:10.329Z,20.30
2022-10-28T06:14:11.132Z,17.25
2022-10-28T06:24:13.359Z,16.85
2022-10-28T06:34:15.861Z,13.93
2022-10-28T06:44:18.353Z,16.50
2022-10-28T06:54:21.969Z,18.10
2022-10-28T07:04:24.048Z,18.30
2022-10-28T07:14:26.208Z,28.45
2022-10-28T07:34:50.333Z,20.27
2022-10-28T07:44:52.431Z,18.23
2022-10-28T07:54:54.517Z,17.27
2022-10-28T08:04:56.979Z,17.25
2022-10-28T08:14:59.122Z,17.45
2022-10-28T08:25:01.277Z,12.85
2022-10-28T08:35:03.834Z,10.98
2022-10-28T08:45:33.300Z,19.42
2022-10-28T08:55:39.944Z,12.07
2022-10-28T09:05:44.939Z,9.77
2022-10-28T09:15:52.755Z,7.10
2022-10-28T09:26:06.838Z,7.77
2022-10-28T09:36:17.186Z,10.30
2022-10-28T09:46:19.993Z,7.90
2022-10-28T09:56:22.393Z,6.80
2022-10-28T10:06:29.365Z,7.43
2022-10-28T10:16:55.393Z,3.45
2022-10-28T10:27:19.968Z,1.70
2022-10-28T10:37:23.751Z,1.48
2022-10-28T10:47:40.681Z,1.25
2022-10-28T10:57:46.785Z,2.35
2022-10-28T11:07:50.850Z,1.67
2022-10-28T11:17:59.898Z,1.45
2022-10-28T11:28:26.904Z,2.20
2022-10-28T11:38:59.025Z,1.83
2022-10-28T11:49:34.764Z,1.63
2022-10-28T12:00:09.398Z,1.85
2022-10-28T12:10:17.835Z,1.48
2022-10-28T12:20:38.297Z,1.35
2022-10-28T12:30:43.065Z,1.45
2022-10-28T12:41:11.776Z,1.73
2022-10-28T12:51:29.213Z,1.67
2022-10-28T13:01:48.514Z,2.05
2022-10-28T13:12:18.059Z,1.95
2022-10-28T13:22:54.277Z,1.50
2022-10-28T13:33:08.598Z,1.88
2022-10-28T13:43:50.059Z,1.80
2022-10-28T13:54:24.828Z,5.60
2022-10-28T14:04:34.015Z,2.42
2022-10-28T14:15:05.045Z,1.45
2022-10-28T14:25:42.033Z,1.88
2022-10-28T14:35:45.060Z,1.92
2022-10-28T14:46:23.704Z,3.85
2022-10-28T14:56:28.870Z,2.08
2022-10-28T15:06:49.795Z,1.90
2022-10-28T15:17:28.788Z,3.20
2022-10-28T15:27:47.272Z,2.28
2022-10-28T15:38:25.800Z,2.60
2022-10-28T15:48:27.946Z,3.15
2022-10-28T15:58:38.644Z,3.78
2022-10-28T16:08:40.782Z,2.95
2022-10-28T16:18:50.159Z,2.58
2022-10-28T16:28:53.095Z,4.88
2022-10-28T16:38:55.246Z,2.20
2022-10-28T16:49:12.095Z,2.80
2022-10-28T16:59:15.736Z,2.20
2022-10-28T17:09:17.981Z,1.90
2022-10-28T17:19:34.818Z,2.78
2022-10-28T17:29:37.078Z,3.13
2022-10-28T17:39:39.339Z,2.60
2022-10-28T17:49:41.565Z,3.30
2022-10-28T17:59:43.794Z,2.60
2022-10-28T18:09:45.899Z,2.72
2022-10-28T18:19:47.980Z,2.00
2022-10-28T18:29:50.106Z,3.78
2022-10-28T18:39:52.196Z,2.45
2022-10-28T18:49:54.610Z,2.28
2022-10-28T19:00:17.562Z,1.85
2022-10-28T19:10:18.782Z,3.00
2022-10-28T19:20:35.606Z,2.15
2022-10-28T19:30:37.750Z,1.67
2022-10-28T19:40:39.822Z,2.17
2022-10-28T19:50:49.034Z,1.60
2022-10-28T20:00:57.047Z,1.88
2022-10-28T20:11:24.805Z,1.67
2022-10-28T20:21:30.643Z,1.60
2022-10-28T20:40:12.041Z,2.63
2022-10-28T20:50:14.208Z,2.15
2022-10-28T21:00:16.661Z,1.73
2022-10-28T21:10:19.248Z,2.05
2022-10-28T21:20:21.877Z,2.25
2022-10-28T21:30:38.695Z,1.80
2022-10-28T21:40:40.780Z,2.00
2022-10-28T21:50:53.430Z,2.33
2022-10-28T22:10:10.736Z,1.67
2022-10-28T22:20:13.173Z,2.45
2022-10-28T22:30:30.102Z,2.60
2022-10-28T22:40:46.920Z,1.60
2022-10-28T22:50:49.171Z,2.35
2022-10-28T23:01:08.629Z,2.15
2022-10-28T23:11:11.615Z,2.22
2022-10-28T23:21:22.285Z,2.22
2022-10-28T23:31:24.714Z,2.30
2022-10-28T23:41:41.522Z,2.93
2022-10-28T23:51:43.606Z,2.13
